sensor_id;sensor_type;location;lat;lon;timestamp;temperature;humidity
11991;DHT22;6055;52.522;13.446;2022-11-25T00:01:37;4.30;99.90
11991;DHT22;6055;52.522;13.446;2022-11-25T00:04:03;4.30;99.90
11991;DHT22;6055;52.522;13.446;2022-11-25T00:06:30;4.40;99.90
11991;DHT22;6055;52.522;13.446;2022-11-25T00:08:58;4.40;99.90
11991;DHT22;6055;52.522;13.446;2022-11-25T00:11:24;4.40;99.90
11991;DHT22;6055;52.522;13.446;2022-11-25T00:13:50;4.40;99.90
11991;DHT22;6055;52.522;13.446;2022-11-25T00:16:18;4.40;99.90
11991;DHT22;6055;52.522;13.446;2022-11-25T00:18:45;4.40;99.90
11991;DHT22;6055;52.522;13.446;2022-11-25T00:21:13;4.40;99.90
11991;DHT22;6055;52.522;13.446;2022-11-25T00:23:39;4.40;99.90
11991;DHT22;6055;52.522;13.446;2022-11-25T00:26:15;4.40;99.90
11991;DHT22;6055;52.522;13.446;2022-11-25T00:28:45;4.40;99.90
11991;DHT22;6055;52.522;13.446;2022-11-25T00:33:38;4.40;99.90
11991;DHT22;6055;52.522;13.446;2022-11-25T00:36:12;4.40;99.90
11991;DHT22;6055;52.522;13.446;2022-11-25T00:38:38;4.40;99.90
11991;DHT22;6055;52.522;13.446;2022-11-25T00:41:04;4.40;99.90
11991;DHT22;6055;52.522;13.446;2022-11-25T00:43:48;4.40;99.90
11991;DHT22;6055;52.522;13.446;2022-11-25T00:46:32;4.40;99.90
11991;DHT22;6055;52.522;13.446;2022-11-25T00:48:58;4.40;99.90
11991;DHT22;6055;52.522;13.446;2022-11-25T00:51:23;4.40;99.90
11991;DHT22;6055;52.522;13.446;2022-11-25T00:53:49;4.40;99.90
11991;DHT22;6055;52.522;13.446;2022-11-25T00:56:14;4.40;99.90
11991;DHT22;6055;52.522;13.446;2022-11-25T00:58:41;4.40;99.90
11991;DHT22;6055;52.522;13.446;2022-11-25T01:01:07;4.40;99.90
11991;DHT22;6055;52.522;13.446;2022-11-25T01:03:33;4.40;99.90
11991;DHT22;6055;52.522;13.446;2022-11-25T01:06:04;4.40;99.90
11991;DHT22;6055;52.522;13.446;2022-11-25T01:08:30;4.40;99.90
11991;DHT22;6055;52.522;13.446;2022-11-25T01:11:04;4.40;99.90
11991;DHT22;6055;52.522;13.446;2022-11-25T01:13:30;4.40;99.90
11991;DHT22;6055;52.522;13.446;2022-11-25T01:15:56;4.40;99.90
11991;DHT22;6055;52.522;13.446;2022-11-25T01:18:22;4.40;99.90
11991;DHT22;6055;52.522;13.446;2022-11-25T01:20:47;4.40;99.90
11991;DHT22;6055;52.522;13.446;2022-11-25T01:23:13;4.40;99.90
11991;DHT22;6055;52.522;13.446;2022-11-25T01:25:39;4.50;99.90
11991;DHT22;6055;52.522;13.446;2022-11-25T01:28:05;4.50;99.90
11991;DHT22;6055;52.522;13.446;2022-11-25T01:30:30;4.50;99.90
11991;DHT22;6055;52.522;13.446;2022-11-25T01:32:56;4.50;99.90
11991;DHT22;6055;52.522;13.446;2022-11-25T01:35:21;4.50;99.90
11991;DHT22;6055;52.522;13.446;2022-11-25T01:37:47;4.50;99.90
11991;DHT22;6055;52.522;13.446;2022-11-25T01:40:12;4.50;99.90
11991;DHT22;6055;52.522;13.446;2022-11-25T01:42:48;4.50;99.90
11991;DHT22;6055;52.522;13.446;2022-11-25T01:47:54;4.50;99.90
11991;DHT22;6055;52.522;13.446;2022-11-25T01:50:23;4.50;99.90
11991;DHT22;6055;52.522;13.446;2022-11-25T01:52:52;4.60;99.90
11991;DHT22;6055;52.522;13.446;2022-11-25T01:55:23;4.50;99.90
11991;DHT22;6055;52.522;13.446;2022-11-25T01:58:07;4.50;99.90
11991;DHT22;6055;52.522;13.446;2022-11-25T02:00:35;4.60;99.90
11991;DHT22;6055;52.522;13.446;2022-11-25T02:03:02;4.50;99.90
11991;DHT22;6055;52.522;13.446;2022-11-25T02:05:48;4.60;99.90
11991;DHT22;6055;52.522;13.446;2022-11-25T02:08:16;4.60;99.90
11991;DHT22;6055;52.522;13.446;2022-11-25T02:10:43;4.60;99.90
11991;DHT22;6055;52.522;13.446;2022-11-25T02:13:10;4.60;99.90
11991;DHT22;6055;52.522;13.446;2022-11-25T02:15:35;4.60;99.90
11991;DHT22;6055;52.522;13.446;2022-11-25T02:18:01;4.60;99.90
11991;DHT22;6055;52.522;13.446;2022-11-25T02:20:27;4.60;99.90
11991;DHT22;6055;52.522;13.446;2022-11-25T02:25:28;4.60;99.90
11991;DHT22;6055;52.522;13.446;2022-11-25T02:28:04;4.60;99.90
11991;DHT22;6055;52.522;13.446;2022-11-25T02:30:32;4.60;99.90
11991;DHT22;6055;52.522;13.446;2022-11-25T02:32:58;4.60;99.90
11991;DHT22;6055;52.522;13.446;2022-11-25T02:38:04;4.60;99.90
11991;DHT22;6055;52.522;13.446;2022-11-25T02:40:32;4.70;99.90
11991;DHT22;6055;52.522;13.446;2022-11-25T02:42:59;4.60;99.90
11991;DHT22;6055;52.522;13.446;2022-11-25T02:45:36;4.60;99.90
11991;DHT22;6055;52.522;13.446;2022-11-25T02:48:04;4.60;99.90
11991;DHT22;6055;52.522;13.446;2022-11-25T02:50:29;4.60;99.90
11991;DHT22;6055;52.522;13.446;2022-11-25T02:52:55;4.60;99.90
11991;DHT22;6055;52.522;13.446;2022-11-25T02:55:20;4.60;99.90
11991;DHT22;6055;52.522;13.446;2022-11-25T02:57:46;4.60;99.90
11991;DHT22;6055;52.522;13.446;2022-11-25T03:00:11;4.70;99.90
11991;DHT22;6055;52.522;13.446;2022-11-25T03:02:37;4.70;99.90
11991;DHT22;6055;52.522;13.446;2022-11-25T03:05:04;4.70;99.90
11991;DHT22;6055;52.522;13.446;2022-11-25T03:07:29;4.60;99.90
11991;DHT22;6055;52.522;13.446;2022-11-25T03:09:55;4.60;99.90
11991;DHT22;6055;52.522;13.446;2022-11-25T03:12:20;4.60;99.90
11991;DHT22;6055;52.522;13.446;2022-11-25T03:14:46;4.60;99.90
11991;DHT22;6055;52.522;13.446;2022-11-25T03:17:12;4.60;99.90
11991;DHT22;6055;52.522;13.446;2022-11-25T03:19:38;4.60;99.90
11991;DHT22;6055;52.522;13.446;2022-11-25T03:22:03;4.60;99.90
11991;DHT22;6055;52.522;13.446;2022-11-25T03:24:29;4.60;99.90
11991;DHT22;6055;52.522;13.446;2022-11-25T03:26:54;4.60;99.90
11991;DHT22;6055;52.522;13.446;2022-11-25T03:29:20;4.60;99.90
11991;DHT22;6055;52.522;13.446;2022-11-25T03:31:45;4.60;99.90
11991;DHT22;6055;52.522;13.446;2022-11-25T03:34:11;4.60;99.90
11991;DHT22;6055;52.522;13.446;2022-11-25T03:36:37;4.60;99.90
11991;DHT22;6055;52.522;13.446;2022-11-25T03:39:02;4.60;99.90
11991;DHT22;6055;52.522;13.446;2022-11-25T03:41:28;4.60;99.90
11991;DHT22;6055;52.522;13.446;2022-11-25T03:43:53;4.60;99.90
11991;DHT22;6055;52.522;13.446;2022-11-25T03:46:19;4.60;99.90
11991;DHT22;6055;52.522;13.446;2022-11-25T03:48:44;4.60;99.90
11991;DHT22;6055;52.522;13.446;2022-11-25T03:51:10;4.70;99.90
11991;DHT22;6055;52.522;13.446;2022-11-25T03:53:35;4.70;99.90
11991;DHT22;6055;52.522;13.446;2022-11-25T03:56:01;4.70;99.90
11991;DHT22;6055;52.522;13.446;2022-11-25T03:58:26;4.70;99.90
11991;DHT22;6055;52.522;13.446;2022-11-25T04:00:52;4.70;99.90
11991;DHT22;6055;52.522;13.446;2022-11-25T04:03:17;4.70;99.90
11991;DHT22;6055;52.522;13.446;2022-11-25T04:05:43;4.70;99.90
11991;DHT22;6055;52.522;13.446;2022-11-25T04:08:08;4.70;99.90
11991;DHT22;6055;52.522;13.446;2022-11-25T04:10:34;4.70;99.90
11991;DHT22;6055;52.522;13.446;2022-11-25T04:12:59;4.70;99.90
11991;DHT22;6055;52.522;13.446;2022-11-25T04:15:25;4.70;99.90
11991;DHT22;6055;52.522;13.446;2022-11-25T04:17:50;4.80;99.90
11991;DHT22;6055;52.522;13.446;2022-11-25T04:20:16;4.80;99.90
11991;DHT22;6055;52.522;13.446;2022-11-25T04:22:42;4.80;99.90
11991;DHT22;6055;52.522;13.446;2022-11-25T04:25:08;4.80;99.90
11991;DHT22;6055;52.522;13.446;2022-11-25T04:27:34;4.80;99.90
11991;DHT22;6055;52.522;13.446;2022-11-25T04:29:59;4.80;99.90
11991;DHT22;6055;52.522;13.446;2022-11-25T04:32:25;4.80;99.90
11991;DHT22;6055;52.522;13.446;2022-11-25T04:34:50;4.80;99.90
11991;DHT22;6055;52.522;13.446;2022-11-25T04:37:16;4.80;99.90
11991;DHT22;6055;52.522;13.446;2022-11-25T04:39:41;4.80;99.90
11991;DHT22;6055;52.522;13.446;2022-11-25T04:42:07;4.70;99.90
11991;DHT22;6055;52.522;13.446;2022-11-25T04:44:55;4.70;99.90
11991;DHT22;6055;52.522;13.446;2022-11-25T04:47:21;4.70;99.90
11991;DHT22;6055;52.522;13.446;2022-11-25T04:49:47;4.80;99.90
11991;DHT22;6055;52.522;13.446;2022-11-25T04:52:12;4.80;99.90
11991;DHT22;6055;52.522;13.446;2022-11-25T04:54:38;4.80;99.90
11991;DHT22;6055;52.522;13.446;2022-11-25T04:57:03;4.80;99.90
11991;DHT22;6055;52.522;13.446;2022-11-25T04:59:29;4.80;99.90
11991;DHT22;6055;52.522;13.446;2022-11-25T05:02:04;4.80;99.90
11991;DHT22;6055;52.522;13.446;2022-11-25T05:04:29;4.80;99.90
11991;DHT22;6055;52.522;13.446;2022-11-25T05:06:55;4.90;99.90
11991;DHT22;6055;52.522;13.446;2022-11-25T05:09:20;4.90;99.90
11991;DHT22;6055;52.522;13.446;2022-11-25T05:11:46;4.90;99.90
11991;DHT22;6055;52.522;13.446;2022-11-25T05:14:12;4.90;99.90
11991;DHT22;6055;52.522;13.446;2022-11-25T05:16:37;4.90;99.90
11991;DHT22;6055;52.522;13.446;2022-11-25T05:19:03;4.90;99.90
11991;DHT22;6055;52.522;13.446;2022-11-25T05:21:28;4.90;99.90
11991;DHT22;6055;52.522;13.446;2022-11-25T05:23:54;4.90;99.90
11991;DHT22;6055;52.522;13.446;2022-11-25T05:26:19;4.90;99.90
11991;DHT22;6055;52.522;13.446;2022-11-25T05:28:45;4.90;99.90
11991;DHT22;6055;52.522;13.446;2022-11-25T05:31:11;4.90;99.90
11991;DHT22;6055;52.522;13.446;2022-11-25T05:33:37;4.90;99.90
11991;DHT22;6055;52.522;13.446;2022-11-25T05:36:03;4.90;99.90
11991;DHT22;6055;52.522;13.446;2022-11-25T05:38:29;4.90;99.90
11991;DHT22;6055;52.522;13.446;2022-11-25T05:41:05;4.90;99.90
11991;DHT22;6055;52.522;13.446;2022-11-25T05:43:31;4.90;99.90
11991;DHT22;6055;52.522;13.446;2022-11-25T05:45:57;4.90;99.90
11991;DHT22;6055;52.522;13.446;2022-11-25T05:48:22;4.90;99.90
11991;DHT22;6055;52.522;13.446;2022-11-25T05:50:48;4.90;99.90
11991;DHT22;6055;52.522;13.446;2022-11-25T05:53:13;4.90;99.90
11991;DHT22;6055;52.522;13.446;2022-11-25T05:55:41;4.90;99.90
11991;DHT22;6055;52.522;13.446;2022-11-25T05:58:07;4.90;99.90
11991;DHT22;6055;52.522;13.446;2022-11-25T06:00:32;4.90;99.90
11991;DHT22;6055;52.522;13.446;2022-11-25T06:02:58;4.90;99.90
11991;DHT22;6055;52.522;13.446;2022-11-25T06:05:23;4.90;99.90
11991;DHT22;6055;52.522;13.446;2022-11-25T06:07:49;4.90;99.90
11991;DHT22;6055;52.522;13.446;2022-11-25T06:10:16;4.90;99.90
11991;DHT22;6055;52.522;13.446;2022-11-25T06:12:42;4.90;99.90
11991;DHT22;6055;52.522;13.446;2022-11-25T06:15:08;4.90;99.90
11991;DHT22;6055;52.522;13.446;2022-11-25T06:17:34;4.90;99.90
11991;DHT22;6055;52.522;13.446;2022-11-25T06:19:59;4.90;99.90
11991;DHT22;6055;52.522;13.446;2022-11-25T06:22:25;4.90;99.90
11991;DHT22;6055;52.522;13.446;2022-11-25T06:24:50;4.90;99.90
11991;DHT22;6055;52.522;13.446;2022-11-25T06:27:16;4.90;99.90
11991;DHT22;6055;52.522;13.446;2022-11-25T06:29:41;4.90;99.90
11991;DHT22;6055;52.522;13.446;2022-11-25T06:32:07;4.90;99.90
11991;DHT22;6055;52.522;13.446;2022-11-25T06:34:32;4.90;99.90
11991;DHT22;6055;52.522;13.446;2022-11-25T06:36:57;4.80;99.90
11991;DHT22;6055;52.522;13.446;2022-11-25T06:39:23;4.80;99.90
11991;DHT22;6055;52.522;13.446;2022-11-25T06:41:49;4.70;99.90
11991;DHT22;6055;52.522;13.446;2022-11-25T06:44:14;4.70;99.90
11991;DHT22;6055;52.522;13.446;2022-11-25T06:46:40;4.60;99.90
11991;DHT22;6055;52.522;13.446;2022-11-25T06:49:05;4.60;99.90
11991;DHT22;6055;52.522;13.446;2022-11-25T06:51:31;4.60;99.90
11991;DHT22;6055;52.522;13.446;2022-11-25T06:53:57;4.60;99.90
11991;DHT22;6055;52.522;13.446;2022-11-25T06:56:25;4.60;99.90
11991;DHT22;6055;52.522;13.446;2022-11-25T06:58:52;4.60;99.90
11991;DHT22;6055;52.522;13.446;2022-11-25T07:01:19;4.60;99.90
11991;DHT22;6055;52.522;13.446;2022-11-25T07:03:46;4.60;99.90
11991;DHT22;6055;52.522;13.446;2022-11-25T07:06:13;4.60;99.90
11991;DHT22;6055;52.522;13.446;2022-11-25T07:08:39;4.60;99.90
11991;DHT22;6055;52.522;13.446;2022-11-25T07:11:07;4.60;99.90
11991;DHT22;6055;52.522;13.446;2022-11-25T07:13:34;4.60;99.90
11991;DHT22;6055;52.522;13.446;2022-11-25T07:16:02;4.70;99.90
11991;DHT22;6055;52.522;13.446;2022-11-25T07:18:32;4.60;99.90
11991;DHT22;6055;52.522;13.446;2022-11-25T07:21:13;4.70;99.90
11991;DHT22;6055;52.522;13.446;2022-11-25T07:23:39;4.70;99.90
11991;DHT22;6055;52.522;13.446;2022-11-25T07:26:07;4.70;99.90
11991;DHT22;6055;52.522;13.446;2022-11-25T07:28:34;4.70;99.90
11991;DHT22;6055;52.522;13.446;2022-11-25T07:31:14;4.80;99.90
11991;DHT22;6055;52.522;13.446;2022-11-25T07:33:40;4.80;99.90
11991;DHT22;6055;52.522;13.446;2022-11-25T07:36:08;4.80;99.90
11991;DHT22;6055;52.522;13.446;2022-11-25T07:38:35;4.80;99.90
11991;DHT22;6055;52.522;13.446;2022-11-25T07:41:09;4.80;99.90
11991;DHT22;6055;52.522;13.446;2022-11-25T07:43:35;4.80;99.90
11991;DHT22;6055;52.522;13.446;2022-11-25T07:46:31;4.80;99.90
11991;DHT22;6055;52.522;13.446;2022-11-25T07:49:03;4.80;99.90
11991;DHT22;6055;52.522;13.446;2022-11-25T07:54:00;4.90;99.90
11991;DHT22;6055;52.522;13.446;2022-11-25T07:56:27;4.90;99.90
11991;DHT22;6055;52.522;13.446;2022-11-25T07:58:54;4.90;99.90
11991;DHT22;6055;52.522;13.446;2022-11-25T08:01:20;4.90;99.90
11991;DHT22;6055;52.522;13.446;2022-11-25T08:03:47;5.00;99.90
11991;DHT22;6055;52.522;13.446;2022-11-25T08:06:16;5.00;99.90
11991;DHT22;6055;52.522;13.446;2022-11-25T08:08:42;5.00;99.90
11991;DHT22;6055;52.522;13.446;2022-11-25T08:11:11;5.10;99.90
11991;DHT22;6055;52.522;13.446;2022-11-25T08:13:37;5.10;99.90
11991;DHT22;6055;52.522;13.446;2022-11-25T08:16:03;5.10;99.90
11991;DHT22;6055;52.522;13.446;2022-11-25T08:18:29;5.10;99.90
11991;DHT22;6055;52.522;13.446;2022-11-25T08:21:02;5.20;99.90
11991;DHT22;6055;52.522;13.446;2022-11-25T08:23:29;5.20;99.90
11991;DHT22;6055;52.522;13.446;2022-11-25T08:25:55;5.20;99.90
11991;DHT22;6055;52.522;13.446;2022-11-25T08:28:21;5.20;99.90
11991;DHT22;6055;52.522;13.446;2022-11-25T08:30:47;5.30;99.90
11991;DHT22;6055;52.522;13.446;2022-11-25T08:33:13;5.30;99.90
11991;DHT22;6055;52.522;13.446;2022-11-25T08:35:38;5.40;99.90
11991;DHT22;6055;52.522;13.446;2022-11-25T08:38:08;5.40;99.90
11991;DHT22;6055;52.522;13.446;2022-11-25T08:40:36;5.40;99.90
11991;DHT22;6055;52.522;13.446;2022-11-25T08:43:02;5.40;99.90
11991;DHT22;6055;52.522;13.446;2022-11-25T08:45:28;5.40;99.90
11991;DHT22;6055;52.522;13.446;2022-11-25T08:47:54;5.40;99.90
11991;DHT22;6055;52.522;13.446;2022-11-25T08:50:20;5.50;99.90
11991;DHT22;6055;52.522;13.446;2022-11-25T08:52:45;5.50;99.90
11991;DHT22;6055;52.522;13.446;2022-11-25T08:55:11;5.50;99.90
11991;DHT22;6055;52.522;13.446;2022-11-25T08:57:37;5.60;99.90
11991;DHT22;6055;52.522;13.446;2022-11-25T09:00:04;5.60;99.90
11991;DHT22;6055;52.522;13.446;2022-11-25T09:02:30;5.60;99.90
11991;DHT22;6055;52.522;13.446;2022-11-25T09:04:55;5.60;99.90
11991;DHT22;6055;52.522;13.446;2022-11-25T09:07:21;5.60;99.90
11991;DHT22;6055;52.522;13.446;2022-11-25T09:09:46;5.60;99.90
11991;DHT22;6055;52.522;13.446;2022-11-25T09:12:12;5.70;99.90
11991;DHT22;6055;52.522;13.446;2022-11-25T09:14:38;5.80;99.90
11991;DHT22;6055;52.522;13.446;2022-11-25T09:17:13;5.80;99.90
11991;DHT22;6055;52.522;13.446;2022-11-25T09:19:43;5.80;99.90
11991;DHT22;6055;52.522;13.446;2022-11-25T09:22:09;5.90;99.90
11991;DHT22;6055;52.522;13.446;2022-11-25T09:24:34;5.90;99.90
11991;DHT22;6055;52.522;13.446;2022-11-25T09:27:00;6.00;99.90
11991;DHT22;6055;52.522;13.446;2022-11-25T09:29:26;6.10;99.90
11991;DHT22;6055;52.522;13.446;2022-11-25T09:31:52;6.10;99.90
11991;DHT22;6055;52.522;13.446;2022-11-25T09:34:17;6.20;99.90
11991;DHT22;6055;52.522;13.446;2022-11-25T09:36:43;6.30;99.90
11991;DHT22;6055;52.522;13.446;2022-11-25T09:39:09;6.30;99.90
11991;DHT22;6055;52.522;13.446;2022-11-25T09:42:03;6.30;99.90
11991;DHT22;6055;52.522;13.446;2022-11-25T09:48:29;6.30;99.90
11991;DHT22;6055;52.522;13.446;2022-11-25T09:51:21;6.30;99.90
11991;DHT22;6055;52.522;13.446;2022-11-25T09:53:55;6.40;99.90
11991;DHT22;6055;52.522;13.446;2022-11-25T09:56:30;6.40;99.90
11991;DHT22;6055;52.522;13.446;2022-11-25T09:59:04;6.60;99.90
11991;DHT22;6055;52.522;13.446;2022-11-25T10:01:36;6.70;99.90
11991;DHT22;6055;52.522;13.446;2022-11-25T10:04:16;6.80;99.90
11991;DHT22;6055;52.522;13.446;2022-11-25T10:06:47;6.80;99.90
11991;DHT22;6055;52.522;13.446;2022-11-25T10:09:18;6.90;99.90
11991;DHT22;6055;52.522;13.446;2022-11-25T10:11:52;6.90;99.90
11991;DHT22;6055;52.522;13.446;2022-11-25T10:14:43;6.90;99.90
11991;DHT22;6055;52.522;13.446;2022-11-25T10:19:41;7.00;99.90
11991;DHT22;6055;52.522;13.446;2022-11-25T10:22:29;7.00;99.90
11991;DHT22;6055;52.522;13.446;2022-11-25T10:24:59;6.90;99.90
11991;DHT22;6055;52.522;13.446;2022-11-25T10:28:16;7.00;99.90
11991;DHT22;6055;52.522;13.446;2022-11-25T10:30:21;7.20;99.90
11991;DHT22;6055;52.522;13.446;2022-11-25T10:32:58;7.20;99.90
11991;DHT22;6055;52.522;13.446;2022-11-25T10:35:34;7.20;99.90
11991;DHT22;6055;52.522;13.446;2022-11-25T10:38:05;7.00;99.90
11991;DHT22;6055;52.522;13.446;2022-11-25T10:40:32;7.10;99.90
11991;DHT22;6055;52.522;13.446;2022-11-25T10:43:00;7.20;99.90
11991;DHT22;6055;52.522;13.446;2022-11-25T10:45:37;7.30;99.90
11991;DHT22;6055;52.522;13.446;2022-11-25T10:48:06;7.30;99.90
11991;DHT22;6055;52.522;13.446;2022-11-25T10:50:58;7.30;99.90
11991;DHT22;6055;52.522;13.446;2022-11-25T10:53:27;7.30;99.90
11991;DHT22;6055;52.522;13.446;2022-11-25T10:55:58;7.30;99.90
11991;DHT22;6055;52.522;13.446;2022-11-25T10:58:36;7.40;99.90
11991;DHT22;6055;52.522;13.446;2022-11-25T11:03:39;7.30;99.90
11991;DHT22;6055;52.522;13.446;2022-11-25T11:06:05;7.30;99.90
11991;DHT22;6055;52.522;13.446;2022-11-25T11:08:38;7.30;99.90
11991;DHT22;6055;52.522;13.446;2022-11-25T11:11:17;7.30;99.90
11991;DHT22;6055;52.522;13.446;2022-11-25T11:13:44;7.30;99.90
11991;DHT22;6055;52.522;13.446;2022-11-25T11:16:26;7.20;99.90
11991;DHT22;6055;52.522;13.446;2022-11-25T11:18:54;7.20;99.90
11991;DHT22;6055;52.522;13.446;2022-11-25T11:21:39;7.20;99.90
11991;DHT22;6055;52.522;13.446;2022-11-25T11:27:01;7.10;99.90
11991;DHT22;6055;52.522;13.446;2022-11-25T11:29:27;7.10;99.90
11991;DHT22;6055;52.522;13.446;2022-11-25T11:31:58;7.10;99.90
11991;DHT22;6055;52.522;13.446;2022-11-25T11:37:41;7.30;99.90
11991;DHT22;6055;52.522;13.446;2022-11-25T11:43:02;7.40;99.90
11991;DHT22;6055;52.522;13.446;2022-11-25T11:45:43;7.30;99.90
11991;DHT22;6055;52.522;13.446;2022-11-25T11:48:31;7.40;99.90
11991;DHT22;6055;52.522;13.446;2022-11-25T11:51:26;7.40;99.90
11991;DHT22;6055;52.522;13.446;2022-11-25T11:59:46;7.40;99.90
11991;DHT22;6055;52.522;13.446;2022-11-25T12:07:58;7.60;99.90
11991;DHT22;6055;52.522;13.446;2022-11-25T12:10:39;7.80;99.90
11991;DHT22;6055;52.522;13.446;2022-11-25T12:13:11;7.90;99.90
11991;DHT22;6055;52.522;13.446;2022-11-25T12:15:40;8.00;99.90
11991;DHT22;6055;52.522;13.446;2022-11-25T12:21:04;8.00;99.90
11991;DHT22;6055;52.522;13.446;2022-11-25T12:23:52;7.90;99.90
11991;DHT22;6055;52.522;13.446;2022-11-25T12:26:25;7.80;99.90
11991;DHT22;6055;52.522;13.446;2022-11-25T12:29:08;7.70;99.90
11991;DHT22;6055;52.522;13.446;2022-11-25T12:31:41;7.60;99.90
11991;DHT22;6055;52.522;13.446;2022-11-25T12:34:26;7.50;99.90
11991;DHT22;6055;52.522;13.446;2022-11-25T12:37:03;7.30;99.90
11991;DHT22;6055;52.522;13.446;2022-11-25T12:39:40;7.20;99.90
11991;DHT22;6055;52.522;13.446;2022-11-25T12:42:15;7.10;99.90
11991;DHT22;6055;52.522;13.446;2022-11-25T12:44:54;7.10;99.90
11991;DHT22;6055;52.522;13.446;2022-11-25T12:47:22;7.10;99.90
11991;DHT22;6055;52.522;13.446;2022-11-25T12:49:50;7.00;99.90
11991;DHT22;6055;52.522;13.446;2022-11-25T12:52:48;7.00;99.90
11991;DHT22;6055;52.522;13.446;2022-11-25T12:55:25;6.90;99.90
11991;DHT22;6055;52.522;13.446;2022-11-25T12:58:03;6.90;99.90
11991;DHT22;6055;52.522;13.446;2022-11-25T13:03:42;6.80;99.90
11991;DHT22;6055;52.522;13.446;2022-11-25T13:06:39;6.80;99.90
11991;DHT22;6055;52.522;13.446;2022-11-25T13:09:37;6.80;99.90
11991;DHT22;6055;52.522;13.446;2022-11-25T13:12:36;6.90;99.90
11991;DHT22;6055;52.522;13.446;2022-11-25T13:15:29;6.90;99.90
11991;DHT22;6055;52.522;13.446;2022-11-25T13:17:59;6.80;99.90
11991;DHT22;6055;52.522;13.446;2022-11-25T13:25:37;6.90;99.90
11991;DHT22;6055;52.522;13.446;2022-11-25T13:28:34;6.80;99.90
11991;DHT22;6055;52.522;13.446;2022-11-25T13:36:16;6.80;99.90
11991;DHT22;6055;52.522;13.446;2022-11-25T13:39:03;6.70;99.90
11991;DHT22;6055;52.522;13.446;2022-11-25T13:41:39;6.70;99.90
11991;DHT22;6055;52.522;13.446;2022-11-25T13:44:32;6.70;99.90
11991;DHT22;6055;52.522;13.446;2022-11-25T13:49:52;6.70;99.90
11991;DHT22;6055;52.522;13.446;2022-11-25T13:54:52;6.70;99.90
11991;DHT22;6055;52.522;13.446;2022-11-25T13:57:32;6.70;99.90
11991;DHT22;6055;52.522;13.446;2022-11-25T14:02:34;6.70;99.90
11991;DHT22;6055;52.522;13.446;2022-11-25T14:13:25;6.70;99.90
11991;DHT22;6055;52.522;13.446;2022-11-25T14:16:24;6.70;99.90
11991;DHT22;6055;52.522;13.446;2022-11-25T14:26:50;6.70;99.90
11991;DHT22;6055;52.522;13.446;2022-11-25T14:29:20;6.70;99.90
11991;DHT22;6055;52.522;13.446;2022-11-25T14:32:13;6.70;99.90
11991;DHT22;6055;52.522;13.446;2022-11-25T14:37:16;6.70;99.90
11991;DHT22;6055;52.522;13.446;2022-11-25T14:42:36;6.60;99.90
11991;DHT22;6055;52.522;13.446;2022-11-25T14:45:19;6.70;99.90
11991;DHT22;6055;52.522;13.446;2022-11-25T14:47:45;6.60;99.90
11991;DHT22;6055;52.522;13.446;2022-11-25T14:50:14;6.60;99.90
11991;DHT22;6055;52.522;13.446;2022-11-25T14:52:40;6.50;99.90
11991;DHT22;6055;52.522;13.446;2022-11-25T14:55:09;6.50;99.90
11991;DHT22;6055;52.522;13.446;2022-11-25T14:57:37;6.50;99.90
11991;DHT22;6055;52.522;13.446;2022-11-25T15:00:10;6.40;99.90
11991;DHT22;6055;52.522;13.446;2022-11-25T15:02:50;6.40;99.90
11991;DHT22;6055;52.522;13.446;2022-11-25T15:05:19;6.40;99.90
11991;DHT22;6055;52.522;13.446;2022-11-25T15:10:29;6.40;99.90
11991;DHT22;6055;52.522;13.446;2022-11-25T15:12:54;6.40;99.90
11991;DHT22;6055;52.522;13.446;2022-11-25T15:15:20;6.40;99.90
11991;DHT22;6055;52.522;13.446;2022-11-25T15:17:45;6.40;99.90
11991;DHT22;6055;52.522;13.446;2022-11-25T15:20:13;6.30;99.90
11991;DHT22;6055;52.522;13.446;2022-11-25T15:22:48;6.40;99.90
11991;DHT22;6055;52.522;13.446;2022-11-25T15:25:15;6.40;99.90
11991;DHT22;6055;52.522;13.446;2022-11-25T15:27:46;6.40;99.90
11991;DHT22;6055;52.522;13.446;2022-11-25T15:30:24;6.40;99.90
11991;DHT22;6055;52.522;13.446;2022-11-25T15:32:50;6.40;99.90
11991;DHT22;6055;52.522;13.446;2022-11-25T15:35:20;6.40;99.90
11991;DHT22;6055;52.522;13.446;2022-11-25T15:37:47;6.40;99.90
11991;DHT22;6055;52.522;13.446;2022-11-25T15:40:33;6.40;99.90
11991;DHT22;6055;52.522;13.446;2022-11-25T15:43:03;6.40;99.90
11991;DHT22;6055;52.522;13.446;2022-11-25T15:45:36;6.40;99.90
11991;DHT22;6055;52.522;13.446;2022-11-25T15:48:03;6.40;99.90
11991;DHT22;6055;52.522;13.446;2022-11-25T15:50:28;6.40;99.90
11991;DHT22;6055;52.522;13.446;2022-11-25T15:52:58;6.40;99.90
11991;DHT22;6055;52.522;13.446;2022-11-25T15:55:38;6.40;99.90
11991;DHT22;6055;52.522;13.446;2022-11-25T15:58:20;6.40;99.90
11991;DHT22;6055;52.522;13.446;2022-11-25T16:01:18;6.40;99.90
11991;DHT22;6055;52.522;13.446;2022-11-25T16:03:45;6.40;99.90
11991;DHT22;6055;52.522;13.446;2022-11-25T16:06:26;6.30;99.90
11991;DHT22;6055;52.522;13.446;2022-11-25T16:08:57;6.30;99.90
11991;DHT22;6055;52.522;13.446;2022-11-25T16:11:25;6.30;99.90
11991;DHT22;6055;52.522;13.446;2022-11-25T16:13:53;6.30;99.90
11991;DHT22;6055;52.522;13.446;2022-11-25T16:16:28;6.30;99.90
11991;DHT22;6055;52.522;13.446;2022-11-25T16:26:53;6.30;99.90
11991;DHT22;6055;52.522;13.446;2022-11-25T16:29:47;6.30;99.90
11991;DHT22;6055;52.522;13.446;2022-11-25T16:32:15;6.30;99.90
11991;DHT22;6055;52.522;13.446;2022-11-25T16:34:42;6.30;99.90
11991;DHT22;6055;52.522;13.446;2022-11-25T16:37:08;6.30;99.90
11991;DHT22;6055;52.522;13.446;2022-11-25T16:39:33;6.40;99.90
11991;DHT22;6055;52.522;13.446;2022-11-25T16:42:00;6.40;99.90
11991;DHT22;6055;52.522;13.446;2022-11-25T16:44:28;6.40;99.90
11991;DHT22;6055;52.522;13.446;2022-11-25T16:46:54;6.40;99.90
11991;DHT22;6055;52.522;13.446;2022-11-25T16:49:22;6.40;99.90
11991;DHT22;6055;52.522;13.446;2022-11-25T16:51:48;6.40;99.90
11991;DHT22;6055;52.522;13.446;2022-11-25T16:54:21;6.40;99.90
11991;DHT22;6055;52.522;13.446;2022-11-25T16:56:49;6.40;99.90
11991;DHT22;6055;52.522;13.446;2022-11-25T17:01:50;6.40;99.90
11991;DHT22;6055;52.522;13.446;2022-11-25T17:04:17;6.40;99.90
11991;DHT22;6055;52.522;13.446;2022-11-25T17:06:42;6.40;99.90
11991;DHT22;6055;52.522;13.446;2022-11-25T17:09:09;6.40;99.90
11991;DHT22;6055;52.522;13.446;2022-11-25T17:11:39;6.40;99.90
11991;DHT22;6055;52.522;13.446;2022-11-25T17:14:11;6.40;99.90
11991;DHT22;6055;52.522;13.446;2022-11-25T17:16:40;6.40;99.90
11991;DHT22;6055;52.522;13.446;2022-11-25T17:19:12;6.40;99.90
11991;DHT22;6055;52.522;13.446;2022-11-25T17:21:39;6.40;99.90
11991;DHT22;6055;52.522;13.446;2022-11-25T17:24:14;6.40;99.90
11991;DHT22;6055;52.522;13.446;2022-11-25T17:26:41;6.40;99.90
11991;DHT22;6055;52.522;13.446;2022-11-25T17:29:13;6.40;99.90
11991;DHT22;6055;52.522;13.446;2022-11-25T17:31:39;6.40;99.90
11991;DHT22;6055;52.522;13.446;2022-11-25T17:34:05;6.40;99.90
11991;DHT22;6055;52.522;13.446;2022-11-25T17:36:31;6.40;99.90
11991;DHT22;6055;52.522;13.446;2022-11-25T17:38:56;6.40;99.90
11991;DHT22;6055;52.522;13.446;2022-11-25T17:41:23;6.40;99.90
11991;DHT22;6055;52.522;13.446;2022-11-25T17:43:52;6.40;99.90